createdAt,value
2023-01-02T00:02:02.428Z,101030.56
2023-01-02T00:07:24.248Z,101036.56
2023-01-02T00:12:46.103Z,101032.97
2023-01-02T00:18:07.993Z,101021.56
2023-01-02T00:23:30.333Z,101007.06
2023-01-02T00:28:52.219Z,101024.22
2023-01-02T00:34:14.289Z,101032.97
2023-01-02T00:39:36.148Z,101021.69
2023-01-02T00:44:57.996Z,101020.66
2023-01-02T00:50:20.283Z,101035.44
2023-01-02T00:55:44.395Z,101043.16
2023-01-02T01:01:06.323Z,101046.56
2023-01-02T01:06:28.283Z,101035.38
2023-01-02T01:11:50.147Z,101042.16
2023-01-02T01:17:11.989Z,101033.63
2023-01-02T01:22:33.918Z,101032.66
2023-01-02T01:27:55.762Z,101030.97
2023-01-02T01:33:17.604Z,101017.34
2023-01-02T01:38:39.658Z,101024.97
2023-01-02T01:44:01.657Z,101021.50
2023-01-02T01:49:29.432Z,101011.03
2023-01-02T01:54:58.782Z,100994.53
2023-01-02T02:00:21.122Z,100991.16
2023-01-02T02:05:44.108Z,100989.63
2023-01-02T02:11:06.381Z,100977.97
2023-01-02T02:16:51.679Z,100982.16
2023-01-02T02:22:44.641Z,100973.03
2023-01-02T02:28:25.487Z,100986.69
2023-01-02T02:33:58.928Z,100988.47
2023-01-02T02:39:34.773Z,100983.28
2023-01-02T02:45:00.553Z,100981.78
2023-01-02T02:50:57.673Z,100998.28
2023-01-02T02:56:23.135Z,101000.22
2023-01-02T03:01:45.146Z,100996.78
2023-01-02T03:07:16.153Z,101009.88
2023-01-02T03:12:53.228Z,100990.09
2023-01-02T03:18:52.497Z,100978.25
2023-01-02T03:24:19.443Z,100994.06
2023-01-02T03:29:47.401Z,100999.97
2023-01-02T03:35:14.330Z,100990.75
2023-01-02T03:40:42.996Z,100996.19
2023-01-02T03:46:13.493Z,100974.19
2023-01-02T03:51:35.551Z,101002.47
2023-01-02T03:57:50.819Z,101004.22
2023-01-02T04:03:23.242Z,100998.38
2023-01-02T04:08:51.972Z,100997.53
2023-01-02T04:14:20.129Z,100989.19
2023-01-02T04:19:50.743Z,100985.56
2023-01-02T04:25:15.873Z,101008.63
2023-01-02T04:30:42.875Z,101007.69
2023-01-02T04:36:13.287Z,101020.66
2023-01-02T04:41:36.854Z,101020.81
2023-01-02T04:46:58.704Z,101017.44
2023-01-02T04:52:20.620Z,100996.94
2023-01-02T04:57:42.498Z,100992.03
2023-01-02T05:03:05.101Z,100987.22
2023-01-02T05:08:29.130Z,100973.63
2023-01-02T05:13:50.977Z,100955.81
2023-01-02T05:19:13.073Z,100974.66
2023-01-02T05:24:34.932Z,100946.47
2023-01-02T05:29:56.911Z,100940.72
2023-01-02T05:35:18.852Z,100931.41
2023-01-02T05:40:40.968Z,100926.31
2023-01-02T05:46:11.231Z,100910.78
2023-01-02T05:51:33.818Z,100914.44
2023-01-02T05:56:56.566Z,100909.31
2023-01-02T06:02:18.470Z,100916.41
2023-01-02T06:07:40.341Z,100915.81
2023-01-02T06:13:02.227Z,100930.50
2023-01-02T06:18:24.216Z,100929.72
2023-01-02T06:23:46.843Z,100927.31
2023-01-02T06:29:08.977Z,100926.56
2023-01-02T06:34:30.852Z,100925.81
2023-01-02T06:39:52.792Z,100922.47
2023-01-02T06:45:14.743Z,100906.34
2023-01-02T06:50:37.026Z,100920.91
2023-01-02T06:55:59.113Z,100898.78
2023-01-02T07:01:23.137Z,100905.63
2023-01-02T07:06:45.039Z,100919.88
2023-01-02T07:12:06.925Z,100924.06
2023-01-02T07:17:28.871Z,100917.06
2023-01-02T07:22:51.788Z,100891.78
2023-01-02T07:28:13.714Z,100880.22
2023-01-02T07:33:35.847Z,100890.53
2023-01-02T07:38:57.718Z,100886.69
2023-01-02T07:44:19.567Z,100872.56
2023-01-02T07:49:41.474Z,100874.84
2023-01-02T07:55:03.603Z,100860.88
2023-01-02T08:00:25.636Z,100858.97
2023-01-02T08:05:47.689Z,100853.75
2023-01-02T08:11:12.731Z,100861.00
2023-01-02T08:16:34.854Z,100859.81
2023-01-02T08:21:56.749Z,100872.09
2023-01-02T08:27:18.667Z,100863.09
2023-01-02T08:32:40.673Z,100876.53
2023-01-02T08:38:02.573Z,100880.97
2023-01-02T08:43:25.263Z,100866.25
2023-01-02T08:48:47.209Z,100866.19
2023-01-02T08:54:09.159Z,100860.88
2023-01-02T08:59:31.004Z,100851.69
2023-01-02T09:04:52.905Z,100838.19
2023-01-02T09:10:15.328Z,100834.81
2023-01-02T09:15:37.215Z,100826.56
2023-01-02T09:20:59.199Z,100827.13
2023-01-02T09:26:21.527Z,100823.66
2023-01-02T09:31:43.493Z,100810.00
2023-01-02T09:37:05.373Z,100815.19
2023-01-02T09:42:27.352Z,100813.59
2023-01-02T09:47:50.761Z,100812.25
2023-01-02T09:53:13.879Z,100813.31
2023-01-02T09:58:35.773Z,100802.72
2023-01-02T10:04:17.985Z,100795.34
2023-01-02T10:10:18.056Z,100782.91
2023-01-02T10:15:46.117Z,100790.09
2023-01-02T10:21:23.336Z,100782.16
2023-01-02T10:26:53.742Z,100774.72
2023-01-02T10:32:21.535Z,100775.19
2023-01-02T10:37:43.518Z,100770.94
2023-01-02T10:43:05.448Z,100757.09
2023-01-02T10:48:32.482Z,100747.84
2023-01-02T10:54:05.966Z,100730.06
2023-01-02T10:59:28.822Z,100747.38
2023-01-02T11:04:51.775Z,100743.97
2023-01-02T11:10:37.098Z,100725.09
2023-01-02T11:16:02.118Z,100714.94
2023-01-02T11:21:34.094Z,100708.06
2023-01-02T11:26:56.244Z,100730.03
2023-01-02T11:32:24.515Z,100731.88
2023-01-02T11:37:52.630Z,100729.47
2023-01-02T11:43:14.736Z,100722.31
2023-01-02T11:48:37.036Z,100714.47
2023-01-02T11:54:02.705Z,100705.41
2023-01-02T11:59:32.043Z,100697.59
2023-01-02T12:04:55.069Z,100708.50
2023-01-02T12:10:28.023Z,100695.72
2023-01-02T12:15:52.992Z,100713.03
2023-01-02T12:21:35.062Z,100698.25
2023-01-02T12:27:07.414Z,100684.50
2023-01-02T12:32:41.463Z,100682.94
2023-01-02T12:38:06.913Z,100672.03
2023-01-02T12:43:34.771Z,100680.00
2023-01-02T12:49:15.354Z,100660.03
2023-01-02T12:55:18.933Z,100671.47
2023-01-02T13:01:33.261Z,100670.16
2023-01-02T13:07:03.518Z,100653.25
2023-01-02T13:12:27.783Z,100644.22
2023-01-02T13:17:49.588Z,100642.16
2023-01-02T13:23:34.400Z,100643.56
2023-01-02T13:28:59.086Z,100640.69
2023-01-02T13:34:30.079Z,100637.56
2023-01-02T13:39:57.938Z,100640.75
2023-01-02T13:45:24.624Z,100640.13
2023-01-02T13:50:46.793Z,100633.28
2023-01-02T13:56:10.134Z,100635.72
2023-01-02T14:02:02.421Z,100644.34
2023-01-02T14:07:27.519Z,100638.38
2023-01-02T14:13:02.558Z,100647.03
2023-01-02T14:18:30.758Z,100639.22
2023-01-02T14:24:16.985Z,100639.03
2023-01-02T14:29:52.488Z,100633.13
2023-01-02T14:35:15.227Z,100612.25
2023-01-02T14:40:44.971Z,100606.69
2023-01-02T14:46:23.147Z,100617.19
2023-01-02T14:52:00.663Z,100608.53
2023-01-02T14:57:31.236Z,100613.97
2023-01-02T15:03:28.237Z,100624.56
2023-01-02T15:08:53.111Z,100602.66
2023-01-02T15:14:22.085Z,100606.72
2023-01-02T15:19:47.311Z,100618.88
2023-01-02T15:25:13.033Z,100620.34
2023-01-02T15:30:37.163Z,100621.94
2023-01-02T15:36:03.562Z,100628.19
2023-01-02T15:41:25.533Z,100641.53
2023-01-02T15:46:48.118Z,100641.38
2023-01-02T15:52:25.116Z,100644.34
2023-01-02T15:57:52.862Z,100655.38
2023-01-02T16:04:02.419Z,100648.69
2023-01-02T16:09:27.133Z,100636.19
2023-01-02T16:14:52.969Z,100637.25
2023-01-02T16:20:14.758Z,100634.53
2023-01-02T16:25:44.575Z,100627.59
2023-01-02T16:31:18.335Z,100616.72
2023-01-02T16:36:40.422Z,100622.72
2023-01-02T16:42:02.311Z,100619.16
2023-01-02T16:47:29.732Z,100612.97
2023-01-02T16:52:54.404Z,100613.72
2023-01-02T16:58:16.279Z,100604.19
2023-01-02T17:03:38.212Z,100588.38
2023-01-02T17:09:00.112Z,100589.31
2023-01-02T17:14:21.954Z,100601.84
2023-01-02T17:19:43.772Z,100621.53
2023-01-02T17:25:08.272Z,100612.03
2023-01-02T17:30:30.082Z,100600.00
2023-01-02T17:35:51.973Z,100593.13
2023-01-02T17:41:13.948Z,100599.28
2023-01-02T17:52:18.126Z,100587.88
2023-01-02T17:57:41.304Z,100581.81
2023-01-02T18:03:03.207Z,100602.69
2023-01-02T18:08:25.148Z,100613.00
2023-01-02T18:13:55.976Z,100602.91
2023-01-02T18:19:23.436Z,100612.41
2023-01-02T18:24:47.123Z,100599.38
2023-01-02T18:30:22.540Z,100610.75
2023-01-02T18:36:00.192Z,100612.75
2023-01-02T18:41:23.516Z,100593.88
2023-01-02T18:47:04.068Z,100595.69
2023-01-02T18:52:29.904Z,100592.34
2023-01-02T18:57:59.646Z,100582.06
2023-01-02T19:03:26.520Z,100581.56
2023-01-02T19:08:48.527Z,100591.13
2023-01-02T19:14:22.018Z,100585.06
2023-01-02T19:19:44.536Z,100578.28
2023-01-02T19:25:18.788Z,100576.69
2023-01-02T19:30:41.408Z,100578.53
2023-01-02T19:36:05.061Z,100590.50
2023-01-02T19:41:26.894Z,100592.31
2023-01-02T19:46:48.735Z,100598.50
2023-01-02T19:52:11.546Z,100599.28
2023-01-02T19:57:34.439Z,100589.22
2023-01-02T20:02:56.808Z,100591.00
2023-01-02T20:08:18.812Z,100609.91
2023-01-02T20:13:40.687Z,100601.09
2023-01-02T20:19:02.581Z,100604.84
2023-01-02T20:24:24.854Z,100617.53
2023-01-02T20:29:50.389Z,100619.19
2023-01-02T20:35:12.801Z,100618.63
2023-01-02T20:40:34.881Z,100622.72
2023-01-02T20:45:57.134Z,100607.44
2023-01-02T20:51:19.056Z,100612.16
2023-01-02T20:56:40.902Z,100620.72
2023-01-02T21:02:02.858Z,100615.47
2023-01-02T21:07:24.821Z,100609.38
2023-01-02T21:12:46.721Z,100615.31
2023-01-02T21:18:09.815Z,100624.25
2023-01-02T21:23:33.800Z,100630.91
2023-01-02T21:28:55.630Z,100615.84
2023-01-02T21:34:17.745Z,100615.88
2023-01-02T21:39:39.669Z,100619.59
2023-01-02T21:45:02.082Z,100620.94
2023-01-02T21:50:25.136Z,100624.06
2023-01-02T21:55:46.963Z,100621.94
2023-01-02T22:01:08.896Z,100620.91
2023-01-02T22:06:30.839Z,100624.78
2023-01-02T22:11:53.549Z,100609.91
2023-01-02T22:17:15.419Z,100596.19
2023-01-02T22:22:37.357Z,100622.66
2023-01-02T22:27:59.332Z,100620.00
2023-01-02T22:33:21.582Z,100632.03
2023-01-02T22:39:02.266Z,100621.91
2023-01-02T22:44:25.416Z,100631.41
2023-01-02T22:49:48.958Z,100626.44
2023-01-02T22:55:16.700Z,100644.88
2023-01-02T23:00:38.981Z,100644.78
2023-01-02T23:06:00.867Z,100651.78
2023-01-02T23:11:23.167Z,100656.06
2023-01-02T23:16:45.111Z,100659.84
2023-01-02T23:22:06.971Z,100671.78
2023-01-02T23:27:28.795Z,100652.97
2023-01-02T23:32:50.643Z,100658.94
2023-01-02T23:38:12.504Z,100659.38
2023-01-02T23:43:34.374Z,100658.16
2023-01-02T23:48:56.396Z,100662.47
2023-01-02T23:54:18.704Z,100669.19
2023-01-02T23:59:40.554Z,100659.06
